createdAt,value
2022-08-07T00:00:53.344Z,43.56
2022-08-07T00:03:25.638Z,43.17
2022-08-07T00:05:54.769Z,41.12
2022-08-07T00:08:23.349Z,41.24
2022-08-07T00:10:57.538Z,41.52
2022-08-07T00:13:27.185Z,42.08
2022-08-07T00:15:56.191Z,43.04
2022-08-07T00:18:27.800Z,43.28
2022-08-07T00:21:03.234Z,43.86
2022-08-07T00:23:34.855Z,43.35
2022-08-07T00:26:18.930Z,42.99
2022-08-07T00:28:56.645Z,43.37
2022-08-07T00:31:37.313Z,43.41
2022-08-07T00:34:08.655Z,43.24
2022-08-07T00:36:43.314Z,42.15
2022-08-07T00:39:16.553Z,43.24
2022-08-07T00:42:02.133Z,44.25
2022-08-07T00:44:35.252Z,44.41
2022-08-07T00:47:15.922Z,43.95
2022-08-07T00:50:19.826Z,43.55
2022-08-07T00:52:47.389Z,43.46
2022-08-07T00:55:17.410Z,43.35
2022-08-07T00:58:05.223Z,43.89
2022-08-07T01:00:33.823Z,43.99
2022-08-07T01:03:03.354Z,45.15
2022-08-07T01:05:32.614Z,43.77
2022-08-07T01:08:05.313Z,42.36
2022-08-07T01:10:39.280Z,43.14
2022-08-07T01:13:16.310Z,43.41
2022-08-07T01:16:05.712Z,44.43
2022-08-07T01:18:36.529Z,44.29
2022-08-07T01:21:22.836Z,44.24
2022-08-07T01:23:56.617Z,44.20
2022-08-07T01:26:25.998Z,44.12
2022-08-07T01:28:55.296Z,44.85
2022-08-07T01:31:42.897Z,44.82
2022-08-07T01:34:18.759Z,44.99
2022-08-07T01:36:52.917Z,44.92
2022-08-07T01:39:40.846Z,45.27
2022-08-07T01:42:38.493Z,46.50
2022-08-07T01:45:09.996Z,45.63
2022-08-07T01:48:18.893Z,44.84
2022-08-07T01:50:38.293Z,44.97
2022-08-07T01:53:21.050Z,45.70
2022-08-07T01:55:54.671Z,45.40
2022-08-07T01:58:29.950Z,46.13
2022-08-07T02:01:10.140Z,46.36
2022-08-07T02:04:07.445Z,45.64
2022-08-07T02:06:39.589Z,45.17
2022-08-07T02:09:12.058Z,45.39
2022-08-07T02:12:17.755Z,45.63
2022-08-07T02:14:53.903Z,46.01
2022-08-07T02:17:31.705Z,45.68
2022-08-07T02:20:10.086Z,45.65
2022-08-07T02:22:47.200Z,45.54
2022-08-07T02:26:10.261Z,45.85
2022-08-07T02:28:25.645Z,45.74
2022-08-07T02:30:57.560Z,45.69
2022-08-07T02:33:33.073Z,45.67
2022-08-07T02:36:29.968Z,46.25
2022-08-07T02:39:09.281Z,45.94
2022-08-07T02:41:50.648Z,45.75
2022-08-07T02:44:26.845Z,45.95
2022-08-07T02:47:01.557Z,46.78
2022-08-07T02:49:58.722Z,47.45
2022-08-07T02:52:31.936Z,47.84
2022-08-07T02:55:03.751Z,47.08
2022-08-07T02:57:36.655Z,46.52
2022-08-07T03:00:10.415Z,44.67
2022-08-07T03:02:54.667Z,45.05
2022-08-07T03:05:24.771Z,45.46
2022-08-07T03:08:06.852Z,45.92
2022-08-07T03:10:46.321Z,45.83
2022-08-07T03:13:19.504Z,45.82
2022-08-07T03:15:56.227Z,45.33
2022-08-07T03:18:35.036Z,45.95
2022-08-07T03:21:08.467Z,45.56
2022-08-07T03:24:20.658Z,45.37
2022-08-07T03:26:33.745Z,44.01
2022-08-07T03:29:03.890Z,43.55
2022-08-07T03:31:43.170Z,43.43
2022-08-07T03:34:18.803Z,44.75
2022-08-07T03:36:53.162Z,44.28
2022-08-07T03:39:46.447Z,45.19
2022-08-07T03:42:12.643Z,45.97
2022-08-07T03:44:41.930Z,45.31
2022-08-07T03:47:14.408Z,46.29
2022-08-07T03:49:47.975Z,46.25
2022-08-07T03:52:26.606Z,47.61
2022-08-07T03:55:07.490Z,47.81
2022-08-07T03:58:35.122Z,48.33
2022-08-07T04:00:30.180Z,47.34
2022-08-07T04:02:59.658Z,47.31
2022-08-07T04:05:40.541Z,47.17
2022-08-07T04:08:13.215Z,47.58
2022-08-07T04:10:54.059Z,48.05
2022-08-07T04:14:10.458Z,48.49
2022-08-07T04:16:30.819Z,47.84
2022-08-07T04:19:12.819Z,47.93
2022-08-07T04:21:58.760Z,48.79
2022-08-07T04:24:38.982Z,49.91
2022-08-07T04:27:15.080Z,49.62
2022-08-07T04:30:01.433Z,48.72
2022-08-07T04:32:34.673Z,48.50
2022-08-07T04:35:06.405Z,49.28
2022-08-07T04:38:00.951Z,48.89
2022-08-07T04:40:30.156Z,48.31
2022-08-07T04:43:03.580Z,47.07
2022-08-07T04:46:29.641Z,47.64
2022-08-07T04:49:30.491Z,46.75
2022-08-07T04:52:19.117Z,46.34
2022-08-07T04:55:15.635Z,47.08
2022-08-07T04:58:33.676Z,46.31
2022-08-07T05:01:18.179Z,44.48
2022-08-07T05:03:50.030Z,42.94
2022-08-07T05:06:51.553Z,43.09
2022-08-07T05:09:45.392Z,42.21
2022-08-07T05:12:26.810Z,44.12
2022-08-07T05:15:21.589Z,43.26
2022-08-07T05:17:58.249Z,42.20
2022-08-07T05:20:37.911Z,40.81
2022-08-07T05:23:15.748Z,40.10
2022-08-07T05:26:13.647Z,40.12
2022-08-07T05:28:36.577Z,39.54
2022-08-07T05:31:12.449Z,39.55
2022-08-07T05:34:01.318Z,38.69
2022-08-07T05:36:35.735Z,38.85
2022-08-07T05:40:13.877Z,38.19
2022-08-07T05:42:02.555Z,39.30
2022-08-07T05:44:46.504Z,39.19
2022-08-07T05:47:38.135Z,39.67
2022-08-07T05:50:11.428Z,40.41
2022-08-07T05:52:40.539Z,40.49
2022-08-07T05:55:10.676Z,40.90
2022-08-07T05:57:41.988Z,42.20
2022-08-07T06:00:16.450Z,41.10
2022-08-07T06:02:50.401Z,41.25
2022-08-07T06:05:28.126Z,41.19
2022-08-07T06:08:13.791Z,41.03
2022-08-07T06:10:51.284Z,41.23
2022-08-07T06:14:11.624Z,41.27
2022-08-07T06:16:13.998Z,41.35
2022-08-07T06:18:51.518Z,41.35
2022-08-07T06:22:14.805Z,41.21
2022-08-07T06:24:39.144Z,40.71
2022-08-07T06:26:59.340Z,40.72
2022-08-07T06:29:33.922Z,40.03
2022-08-07T06:32:02.916Z,40.25
2022-08-07T06:34:33.024Z,40.11
2022-08-07T06:37:02.449Z,40.14
2022-08-07T06:40:15.988Z,39.72
2022-08-07T06:42:33.188Z,40.15
2022-08-07T06:45:17.905Z,40.14
2022-08-07T06:47:57.213Z,39.84
2022-08-07T06:50:27.449Z,39.88
2022-08-07T06:53:00.751Z,39.45
2022-08-07T06:55:53.706Z,39.96
2022-08-07T06:58:27.605Z,40.04
2022-08-07T07:00:58.572Z,40.25
2022-08-07T07:03:48.832Z,39.82
2022-08-07T07:06:23.898Z,40.39
2022-08-07T07:08:54.917Z,39.97
2022-08-07T07:12:08.553Z,40.09
2022-08-07T07:14:16.254Z,39.64
2022-08-07T07:16:51.011Z,39.08
2022-08-07T07:19:57.877Z,38.78
2022-08-07T07:22:36.971Z,38.20
2022-08-07T07:26:33.381Z,38.07
2022-08-07T07:28:42.753Z,38.22
2022-08-07T07:31:04.699Z,38.12
2022-08-07T07:33:36.280Z,38.01
2022-08-07T07:36:12.742Z,38.20
2022-08-07T07:38:43.541Z,37.82
2022-08-07T07:41:17.699Z,37.78
2022-08-07T07:44:17.856Z,37.92
2022-08-07T07:46:57.340Z,37.09
2022-08-07T07:50:33.338Z,36.83
2022-08-07T07:52:21.834Z,36.95
2022-08-07T07:54:54.868Z,36.64
2022-08-07T07:57:29.092Z,36.77
2022-08-07T08:00:21.114Z,36.46
2022-08-07T08:03:05.373Z,36.35
2022-08-07T08:05:53.615Z,36.04
2022-08-07T08:08:35.206Z,36.71
2022-08-07T08:11:08.472Z,35.30
2022-08-07T08:13:54.189Z,35.51
2022-08-07T08:16:35.165Z,35.91
2022-08-07T08:19:17.393Z,34.85
2022-08-07T08:22:17.043Z,34.47
2022-08-07T08:25:24.737Z,34.17
2022-08-07T08:28:01.839Z,34.17
2022-08-07T08:30:35.092Z,33.92
2022-08-07T08:33:17.010Z,34.49
2022-08-07T08:35:51.762Z,33.96
2022-08-07T08:38:29.617Z,34.15
2022-08-07T08:41:18.646Z,34.41
2022-08-07T08:43:58.638Z,33.64
2022-08-07T08:46:54.752Z,34.96
2022-08-07T08:49:46.739Z,34.22
2022-08-07T08:52:36.055Z,35.11
2022-08-07T08:55:55.428Z,34.84
2022-08-07T08:58:39.683Z,34.49
2022-08-07T09:01:18.419Z,34.27
2022-08-07T09:04:26.118Z,33.76
2022-08-07T09:07:27.052Z,33.75
2022-08-07T09:10:03.637Z,34.04
2022-08-07T09:12:38.082Z,33.35
2022-08-07T09:16:22.936Z,33.64
2022-08-07T09:18:52.984Z,32.91
2022-08-07T09:21:58.265Z,32.77
2022-08-07T09:24:59.015Z,32.62
2022-08-07T09:27:59.660Z,33.30
2022-08-07T09:30:59.796Z,32.23
2022-08-07T09:33:56.637Z,32.69
2022-08-07T09:37:08.065Z,33.06
2022-08-07T09:39:57.991Z,32.76
2022-08-07T09:43:18.753Z,31.61
2022-08-07T09:47:24.790Z,31.22
2022-08-07T09:50:00.731Z,31.37
2022-08-07T09:52:34.943Z,31.83
2022-08-07T09:55:29.713Z,31.53
2022-08-07T09:58:42.300Z,31.98
2022-08-07T10:01:52.122Z,31.96
2022-08-07T10:04:46.186Z,31.74
2022-08-07T10:07:53.632Z,30.62
2022-08-07T10:11:59.222Z,30.10
2022-08-07T10:14:00.437Z,30.37
2022-08-07T10:16:38.177Z,29.50
2022-08-07T10:19:38.850Z,29.82
2022-08-07T10:22:33.653Z,31.19
2022-08-07T10:25:22.892Z,29.07
2022-08-07T10:28:09.552Z,29.78
2022-08-07T10:31:06.026Z,29.18
2022-08-07T10:34:15.750Z,28.51
2022-08-07T10:37:12.326Z,28.99
2022-08-07T10:40:03.322Z,29.74
2022-08-07T10:42:40.070Z,29.19
2022-08-07T10:45:45.198Z,29.71
2022-08-07T10:48:35.540Z,29.86
2022-08-07T10:51:16.855Z,28.44
2022-08-07T10:54:20.035Z,29.36
2022-08-07T10:57:34.588Z,28.25
2022-08-07T11:00:39.271Z,29.44
2022-08-07T11:03:54.833Z,27.88
2022-08-07T11:06:47.824Z,27.80
2022-08-07T11:10:10.665Z,28.34
2022-08-07T11:12:32.552Z,29.14
2022-08-07T11:15:17.239Z,27.68
2022-08-07T11:17:46.149Z,26.73
2022-08-07T11:20:24.378Z,27.90
2022-08-07T11:23:20.516Z,27.07
2022-08-07T11:26:05.974Z,27.24
2022-08-07T11:28:55.637Z,27.34
2022-08-07T11:31:53.639Z,26.90
2022-08-07T11:34:34.453Z,27.54
2022-08-07T11:37:38.428Z,26.87
2022-08-07T11:40:49.453Z,27.58
2022-08-07T11:43:29.738Z,27.19
2022-08-07T11:46:33.611Z,26.79
2022-08-07T11:49:51.539Z,27.77
2022-08-07T11:52:56.623Z,27.39
2022-08-07T11:56:25.274Z,26.20
2022-08-07T11:58:42.267Z,26.15
2022-08-07T12:01:59.549Z,26.42
2022-08-07T12:04:42.951Z,27.56
2022-08-07T12:07:38.709Z,27.30
2022-08-07T12:10:18.163Z,25.53
2022-08-07T12:12:55.096Z,25.88
2022-08-07T12:15:35.801Z,26.02
2022-08-07T12:18:29.651Z,26.19
2022-08-07T12:21:55.869Z,26.23
2022-08-07T12:24:27.496Z,25.77
2022-08-07T12:27:16.747Z,26.37
2022-08-07T12:30:08.921Z,26.24
2022-08-07T12:32:53.844Z,26.66
2022-08-07T12:35:26.618Z,26.41
2022-08-07T12:38:09.467Z,25.34
2022-08-07T12:40:47.129Z,25.82
2022-08-07T12:44:03.525Z,25.16
2022-08-07T12:46:12.136Z,25.43
2022-08-07T12:49:25.617Z,25.56
2022-08-07T12:52:17.983Z,26.09
2022-08-07T12:55:03.769Z,25.30
2022-08-07T12:57:50.899Z,25.69
2022-08-07T13:00:54.294Z,25.75
2022-08-07T13:03:54.826Z,25.14
2022-08-07T13:06:54.242Z,25.34
2022-08-07T13:10:21.994Z,24.17
2022-08-07T13:12:56.446Z,26.27
2022-08-07T13:15:59.286Z,25.28
2022-08-07T13:18:55.382Z,25.08
2022-08-07T13:21:50.303Z,25.13
2022-08-07T13:24:29.264Z,25.58
2022-08-07T13:27:03.203Z,25.62
2022-08-07T13:29:48.236Z,25.13
2022-08-07T13:32:32.012Z,25.15
2022-08-07T13:35:59.547Z,24.89
2022-08-07T13:38:30.990Z,24.56
2022-08-07T13:41:16.683Z,24.79
2022-08-07T13:43:52.783Z,24.69
2022-08-07T13:46:33.767Z,24.44
2022-08-07T13:49:08.758Z,24.36
2022-08-07T13:52:22.960Z,23.96
2022-08-07T13:54:49.331Z,23.92
2022-08-07T13:57:25.196Z,23.86
2022-08-07T13:59:57.649Z,24.84
2022-08-07T14:02:39.497Z,24.23
2022-08-07T14:05:23.002Z,23.49
2022-08-07T14:08:00.769Z,23.77
2022-08-07T14:10:42.398Z,24.26
2022-08-07T14:13:19.057Z,24.81
2022-08-07T14:16:01.806Z,25.06
2022-08-07T14:18:45.895Z,24.44
2022-08-07T14:22:01.513Z,25.17
2022-08-07T14:24:28.070Z,23.31
2022-08-07T14:27:16.142Z,23.57
2022-08-07T14:30:05.269Z,24.51
2022-08-07T14:32:42.950Z,24.91
2022-08-07T14:35:45.827Z,24.22
2022-08-07T14:38:09.232Z,24.97
2022-08-07T14:40:58.594Z,24.67
2022-08-07T14:43:57.321Z,24.58
2022-08-07T14:46:30.658Z,24.88
2022-08-07T14:49:55.991Z,24.72
2022-08-07T14:52:03.929Z,25.13
2022-08-07T14:54:41.939Z,24.58
2022-08-07T14:57:19.136Z,24.48
2022-08-07T15:00:05.439Z,24.34
2022-08-07T15:02:39.234Z,24.73
2022-08-07T15:05:20.541Z,24.64
2022-08-07T15:07:52.700Z,25.41
2022-08-07T15:10:29.693Z,25.76
2022-08-07T15:13:06.380Z,25.29
2022-08-07T15:18:41.589Z,24.13
2022-08-07T15:21:44.011Z,24.38
2022-08-07T15:25:15.570Z,24.16
2022-08-07T15:27:22.133Z,24.19
2022-08-07T15:30:09.030Z,24.65
2022-08-07T15:33:03.675Z,24.43
2022-08-07T15:36:01.630Z,24.14
2022-08-07T15:38:30.909Z,24.95
2022-08-07T15:41:24.310Z,25.32
2022-08-07T15:44:10.934Z,24.08
2022-08-07T15:46:52.059Z,23.55
2022-08-07T15:50:05.584Z,24.24
2022-08-07T15:52:30.161Z,24.23
2022-08-07T15:55:03.634Z,23.95
2022-08-07T15:57:48.228Z,24.58
2022-08-07T16:00:31.433Z,24.48
2022-08-07T16:03:47.233Z,23.84
2022-08-07T16:06:16.532Z,24.09
2022-08-07T16:08:47.321Z,23.95
2022-08-07T16:11:49.032Z,24.20
2022-08-07T16:14:36.984Z,24.82
2022-08-07T16:18:02.952Z,24.33
2022-08-07T16:20:33.034Z,24.15
2022-08-07T16:23:53.820Z,23.94
2022-08-07T16:26:30.828Z,24.67
2022-08-07T16:30:09.892Z,24.08
2022-08-07T16:32:35.158Z,25.41
2022-08-07T16:35:52.006Z,24.35
2022-08-07T16:39:00.014Z,24.15
2022-08-07T16:41:57.717Z,24.18
2022-08-07T16:46:21.213Z,24.36
2022-08-07T16:48:30.053Z,24.46
2022-08-07T16:51:57.842Z,24.75
2022-08-07T16:54:38.498Z,23.95
2022-08-07T16:58:03.041Z,24.47
2022-08-07T17:00:54.710Z,24.64
2022-08-07T17:03:59.912Z,24.53
2022-08-07T17:06:45.904Z,24.86
2022-08-07T17:10:05.255Z,25.14
2022-08-07T17:12:52.976Z,25.33
2022-08-07T17:16:05.662Z,25.76
2022-08-07T17:18:46.073Z,26.06
2022-08-07T17:21:23.572Z,26.96
2022-08-07T17:23:57.845Z,26.56
2022-08-07T17:26:51.079Z,27.89
2022-08-07T17:30:15.416Z,28.34
2022-08-07T17:32:52.874Z,27.63
2022-08-07T17:35:50.579Z,29.28
2022-08-07T17:38:34.372Z,29.37
2022-08-07T17:42:02.066Z,28.46
2022-08-07T17:44:34.014Z,28.68
2022-08-07T17:47:16.638Z,28.46
2022-08-07T17:50:21.328Z,28.50
2022-08-07T17:52:58.920Z,28.61
2022-08-07T17:56:00.999Z,28.19
2022-08-07T17:58:35.506Z,28.44
2022-08-07T18:01:21.593Z,28.21
2022-08-07T18:04:16.274Z,28.30
2022-08-07T18:07:20.881Z,27.86
2022-08-07T18:10:06.092Z,28.55
2022-08-07T18:13:01.431Z,28.31
2022-08-07T18:15:38.593Z,29.24
2022-08-07T18:18:45.627Z,28.56
2022-08-07T18:21:37.233Z,28.23
2022-08-07T18:24:34.329Z,28.71
2022-08-07T18:27:06.354Z,31.05
2022-08-07T18:30:05.572Z,29.73
2022-08-07T18:32:56.320Z,31.81
2022-08-07T18:35:57.325Z,30.17
2022-08-07T18:39:00.037Z,31.46
2022-08-07T18:42:04.186Z,32.18
2022-08-07T18:45:39.730Z,30.63
2022-08-07T18:50:04.999Z,31.01
2022-08-07T18:52:35.152Z,32.58
2022-08-07T18:54:51.645Z,31.72
2022-08-07T18:57:58.298Z,31.90
2022-08-07T19:01:00.917Z,32.05
2022-08-07T19:03:55.586Z,31.75
2022-08-07T19:06:49.591Z,33.21
2022-08-07T19:09:56.322Z,32.29
2022-08-07T19:12:26.256Z,32.64
2022-08-07T19:16:03.431Z,33.36
2022-08-07T19:18:18.288Z,32.92
2022-08-07T19:21:46.478Z,32.14
2022-08-07T19:24:30.770Z,32.46
2022-08-07T19:28:30.837Z,33.10
2022-08-07T19:31:01.319Z,32.77
2022-08-07T19:32:53.078Z,32.62
2022-08-07T19:35:33.314Z,32.88
2022-08-07T19:38:15.746Z,32.17
2022-08-07T19:40:49.924Z,32.35
2022-08-07T19:43:50.051Z,33.07
2022-08-07T19:46:18.903Z,32.48
2022-08-07T19:48:54.143Z,33.06
2022-08-07T19:51:52.680Z,32.91
2022-08-07T19:54:32.758Z,33.71
2022-08-07T19:58:01.760Z,33.42
2022-08-07T20:00:29.174Z,33.57
2022-08-07T20:03:06.024Z,34.72
2022-08-07T20:06:00.674Z,35.12
2022-08-07T20:08:34.236Z,34.83
2022-08-07T20:11:10.098Z,34.25
2022-08-07T20:13:47.628Z,33.88
2022-08-07T20:16:32.264Z,35.09
2022-08-07T20:19:10.167Z,36.37
2022-08-07T20:21:47.463Z,34.48
2022-08-07T20:24:21.995Z,34.96
2022-08-07T20:26:59.088Z,35.09
2022-08-07T20:29:48.402Z,34.70
2022-08-07T20:32:27.944Z,35.83
2022-08-07T20:35:26.183Z,35.50
2022-08-07T20:37:59.713Z,34.92
2022-08-07T20:40:34.601Z,34.67
2022-08-07T20:43:14.470Z,34.71
2022-08-07T20:46:27.637Z,35.13
2022-08-07T20:49:54.119Z,34.67
2022-08-07T20:51:36.144Z,34.81
2022-08-07T20:54:12.160Z,34.82
2022-08-07T20:56:49.927Z,35.48
2022-08-07T21:00:04.219Z,35.46
2022-08-07T21:02:39.441Z,35.84
2022-08-07T21:05:16.323Z,37.06
2022-08-07T21:07:49.930Z,37.23
2022-08-07T21:10:25.179Z,37.36
2022-08-07T21:13:02.440Z,37.32
2022-08-07T21:15:47.974Z,36.85
2022-08-07T21:18:29.410Z,36.69
2022-08-07T21:20:59.996Z,37.09
2022-08-07T21:23:50.824Z,36.83
2022-08-07T21:26:31.007Z,36.09
2022-08-07T21:29:12.870Z,36.71
2022-08-07T21:32:47.799Z,35.54
2022-08-07T21:35:12.457Z,37.13
2022-08-07T21:37:57.924Z,37.28
2022-08-07T21:40:38.832Z,36.91
2022-08-07T21:43:13.155Z,37.03
2022-08-07T21:46:31.291Z,37.39
2022-08-07T21:49:16.441Z,38.25
2022-08-07T21:52:11.433Z,38.75
2022-08-07T21:54:46.200Z,37.25
2022-08-07T21:57:39.510Z,37.03
2022-08-07T22:00:22.298Z,37.55
2022-08-07T22:03:31.618Z,38.11
2022-08-07T22:06:03.723Z,37.51
2022-08-07T22:08:56.796Z,38.24
2022-08-07T22:11:30.769Z,38.39
2022-08-07T22:14:23.781Z,37.88
2022-08-07T22:17:04.980Z,36.81
2022-08-07T22:19:44.993Z,38.62
2022-08-07T22:22:27.686Z,38.14
2022-08-07T22:25:12.019Z,38.09
2022-08-07T22:28:07.373Z,36.99
2022-08-07T22:31:31.389Z,38.11
2022-08-07T22:34:12.835Z,36.82
2022-08-07T22:37:14.166Z,38.14
2022-08-07T22:39:53.130Z,37.70
2022-08-07T22:42:30.478Z,38.79
2022-08-07T22:45:03.755Z,40.16
2022-08-07T22:48:13.960Z,40.72
2022-08-07T22:51:09.358Z,40.88
2022-08-07T22:54:08.401Z,38.36
2022-08-07T22:57:16.950Z,40.24
2022-08-07T22:59:51.206Z,38.87
2022-08-07T23:02:46.959Z,38.74
2022-08-07T23:06:08.767Z,37.68
2022-08-07T23:08:34.092Z,39.26
2022-08-07T23:11:35.093Z,38.17
2022-08-07T23:14:25.524Z,39.85
2022-08-07T23:17:08.595Z,39.82
2022-08-07T23:20:51.101Z,40.19
2022-08-07T23:24:06.427Z,40.00
2022-08-07T23:26:25.054Z,39.37
2022-08-07T23:29:43.597Z,38.38
2022-08-07T23:34:36.887Z,39.11
2022-08-07T23:35:47.052Z,39.34
2022-08-07T23:38:37.017Z,40.40
2022-08-07T23:41:33.038Z,39.93
2022-08-07T23:44:29.968Z,38.68
2022-08-07T23:47:46.442Z,40.29
2022-08-07T23:50:42.529Z,40.32
2022-08-07T23:53:51.935Z,39.14
2022-08-07T23:56:53.464Z,38.97
